createdAt,value
2022-08-29T00:01:13.375Z,76.48
2022-08-29T00:03:42.077Z,76.59
2022-08-29T00:06:12.620Z,76.40
2022-08-29T00:08:40.698Z,76.39
2022-08-29T00:11:08.906Z,76.68
2022-08-29T00:14:01.395Z,76.91
2022-08-29T00:16:29.542Z,76.83
2022-08-29T00:18:58.192Z,77.09
2022-08-29T00:21:27.569Z,76.95
2022-08-29T00:23:55.555Z,77.22
2022-08-29T00:26:23.575Z,77.27
2022-08-29T00:28:54.622Z,77.60
2022-08-29T00:31:22.689Z,77.59
2022-08-29T00:33:51.283Z,77.48
2022-08-29T00:36:19.295Z,77.29
2022-08-29T00:38:52.020Z,77.96
2022-08-29T00:41:20.660Z,77.67
2022-08-29T00:43:48.689Z,77.84
2022-08-29T00:46:47.614Z,77.79
2022-08-29T00:49:26.657Z,78.03
2022-08-29T00:51:54.863Z,77.90
2022-08-29T00:54:24.589Z,77.70
2022-08-29T00:56:52.637Z,77.76
2022-08-29T00:59:22.892Z,77.16
2022-08-29T01:01:54.050Z,77.38
2022-08-29T01:04:23.736Z,77.78
2022-08-29T01:06:52.566Z,77.43
2022-08-29T01:09:21.369Z,77.30
2022-08-29T01:12:08.336Z,77.68
2022-08-29T01:14:38.581Z,77.56
2022-08-29T01:17:07.670Z,77.80
2022-08-29T01:19:44.498Z,77.87
2022-08-29T01:22:25.179Z,78.17
2022-08-29T01:24:54.714Z,77.73
2022-08-29T01:27:25.057Z,77.95
2022-08-29T01:29:53.019Z,77.81
2022-08-29T01:32:21.087Z,77.78
2022-08-29T01:34:49.151Z,77.68
2022-08-29T01:37:18.018Z,77.74
2022-08-29T01:39:46.747Z,77.46
2022-08-29T01:42:19.482Z,77.69
2022-08-29T01:44:49.671Z,78.00
2022-08-29T01:47:18.180Z,78.29
2022-08-29T01:49:46.826Z,78.49
2022-08-29T01:52:15.608Z,78.42
2022-08-29T01:54:44.920Z,78.49
2022-08-29T01:57:14.191Z,79.09
2022-08-29T01:59:44.616Z,79.62
2022-08-29T02:02:17.049Z,80.14
2022-08-29T02:04:47.193Z,80.73
2022-08-29T02:07:17.536Z,80.81
2022-08-29T02:09:46.760Z,80.79
2022-08-29T02:12:15.177Z,81.03
2022-08-29T02:14:44.915Z,81.28
2022-08-29T02:17:12.965Z,81.14
2022-08-29T02:19:41.679Z,81.35
2022-08-29T02:22:10.211Z,81.39
2022-08-29T02:24:38.649Z,81.20
2022-08-29T02:27:06.907Z,81.37
2022-08-29T02:29:38.429Z,81.42
2022-08-29T02:32:33.195Z,81.71
2022-08-29T02:35:01.999Z,81.55
2022-08-29T02:37:32.478Z,80.90
2022-08-29T02:40:00.623Z,81.14
2022-08-29T02:42:28.771Z,80.53
2022-08-29T02:44:56.826Z,80.33
2022-08-29T02:47:25.305Z,80.99
2022-08-29T02:49:54.982Z,80.89
2022-08-29T02:52:23.140Z,81.10
2022-08-29T02:54:51.225Z,81.05
2022-08-29T02:57:19.310Z,81.34
2022-08-29T02:59:47.322Z,80.92
2022-08-29T03:02:15.413Z,81.29
2022-08-29T03:04:43.468Z,81.78
2022-08-29T03:07:12.918Z,82.26
2022-08-29T03:09:40.994Z,81.94
2022-08-29T03:12:09.433Z,81.90
2022-08-29T03:14:37.593Z,82.22
2022-08-29T03:17:05.833Z,82.05
2022-08-29T03:19:37.166Z,82.47
2022-08-29T03:22:05.653Z,82.33
2022-08-29T03:24:35.535Z,82.27
2022-08-29T03:27:03.815Z,82.38
2022-08-29T03:29:31.919Z,82.30
2022-08-29T03:32:00.009Z,83.22
2022-08-29T03:34:28.902Z,83.70
2022-08-29T03:36:57.159Z,84.13
2022-08-29T03:39:25.174Z,83.96
2022-08-29T03:41:54.642Z,83.99
2022-08-29T03:44:23.308Z,84.03
2022-08-29T03:46:51.445Z,84.44
2022-08-29T03:49:19.518Z,84.22
2022-08-29T03:51:50.045Z,83.85
2022-08-29T03:54:18.239Z,83.40
2022-08-29T03:56:46.673Z,84.02
2022-08-29T03:59:16.828Z,84.00
2022-08-29T04:01:47.320Z,84.09
2022-08-29T04:04:36.410Z,84.31
2022-08-29T04:07:06.406Z,84.32
2022-08-29T04:09:34.786Z,84.10
2022-08-29T04:12:02.847Z,84.32
2022-08-29T04:14:32.475Z,84.11
2022-08-29T04:17:00.575Z,83.30
2022-08-29T04:19:28.631Z,82.86
2022-08-29T04:22:21.874Z,83.00
2022-08-29T04:24:50.109Z,82.81
2022-08-29T04:27:18.269Z,83.81
2022-08-29T04:29:48.417Z,84.61
2022-08-29T04:32:16.554Z,84.80
2022-08-29T04:34:44.765Z,84.82
2022-08-29T04:37:12.891Z,84.93
2022-08-29T04:39:40.873Z,84.66
2022-08-29T04:42:09.002Z,84.83
2022-08-29T04:44:37.054Z,85.22
2022-08-29T04:47:07.020Z,85.15
2022-08-29T04:49:35.053Z,85.38
2022-08-29T04:52:03.670Z,85.21
2022-08-29T04:54:31.782Z,85.08
2022-08-29T04:57:03.308Z,85.13
2022-08-29T04:59:33.223Z,84.60
2022-08-29T05:02:01.627Z,84.65
2022-08-29T05:04:31.049Z,85.45
2022-08-29T05:06:59.077Z,85.14
2022-08-29T05:09:27.156Z,85.50
2022-08-29T05:11:55.216Z,85.54
2022-08-29T05:14:23.341Z,85.89
2022-08-29T05:16:51.420Z,85.91
2022-08-29T05:19:19.628Z,85.91
2022-08-29T05:21:49.468Z,85.80
2022-08-29T05:24:17.556Z,86.17
2022-08-29T05:26:46.580Z,86.27
2022-08-29T05:29:14.588Z,86.09
2022-08-29T05:31:45.696Z,86.16
2022-08-29T05:34:32.047Z,86.50
2022-08-29T05:37:02.241Z,86.28
2022-08-29T05:39:30.423Z,86.41
2022-08-29T05:41:59.588Z,86.33
2022-08-29T05:44:32.913Z,86.00
2022-08-29T05:47:03.676Z,86.75
2022-08-29T05:49:31.763Z,86.86
2022-08-29T05:52:00.666Z,86.91
2022-08-29T05:54:30.351Z,87.11
2022-08-29T05:56:58.987Z,86.48
2022-08-29T05:59:27.093Z,86.22
2022-08-29T06:01:55.140Z,85.96
2022-08-29T06:04:23.210Z,86.25
2022-08-29T06:06:51.727Z,86.92
2022-08-29T06:09:19.839Z,86.25
2022-08-29T06:11:50.423Z,85.60
2022-08-29T06:14:18.806Z,85.40
2022-08-29T06:16:46.943Z,85.37
2022-08-29T06:19:15.045Z,85.40
2022-08-29T06:21:43.296Z,84.84
2022-08-29T06:24:11.426Z,84.71
2022-08-29T06:26:39.493Z,84.92
2022-08-29T06:29:10.251Z,84.59
2022-08-29T06:31:38.883Z,84.54
2022-08-29T06:34:08.065Z,85.35
2022-08-29T06:36:37.156Z,85.98
2022-08-29T06:39:08.099Z,85.81
2022-08-29T06:41:37.211Z,85.33
2022-08-29T06:44:09.696Z,85.74
2022-08-29T06:46:40.520Z,85.88
2022-08-29T06:49:12.147Z,85.78
2022-08-29T06:51:42.106Z,85.64
2022-08-29T06:54:12.821Z,85.39
2022-08-29T06:56:42.459Z,85.33
2022-08-29T06:59:11.964Z,85.42
2022-08-29T07:01:41.200Z,85.18
2022-08-29T07:04:14.337Z,85.34
2022-08-29T07:06:43.138Z,85.62
2022-08-29T07:09:11.424Z,85.75
2022-08-29T07:11:41.451Z,85.30
2022-08-29T07:14:11.563Z,85.33
2022-08-29T07:16:39.942Z,85.07
2022-08-29T07:19:08.714Z,85.03
2022-08-29T07:21:37.110Z,84.79
2022-08-29T07:24:05.746Z,84.50
2022-08-29T07:26:36.313Z,84.59
2022-08-29T07:29:08.208Z,84.29
2022-08-29T07:31:39.051Z,84.47
2022-08-29T07:34:07.735Z,84.27
2022-08-29T07:36:36.711Z,84.38
2022-08-29T07:39:07.561Z,84.19
2022-08-29T07:42:00.371Z,84.22
2022-08-29T07:44:30.280Z,83.93
2022-08-29T07:47:04.435Z,83.93
2022-08-29T07:49:40.935Z,83.87
2022-08-29T07:52:09.296Z,83.54
2022-08-29T07:54:37.458Z,84.14
2022-08-29T07:57:05.798Z,83.39
2022-08-29T07:59:33.807Z,83.62
2022-08-29T08:02:03.759Z,83.18
2022-08-29T08:04:31.939Z,83.20
2022-08-29T08:06:59.964Z,82.72
2022-08-29T08:09:27.948Z,82.77
2022-08-29T08:11:55.966Z,83.17
2022-08-29T08:14:24.040Z,82.90
2022-08-29T08:17:04.680Z,82.85
2022-08-29T08:19:33.255Z,82.48
2022-08-29T08:22:01.260Z,82.55
2022-08-29T08:24:29.286Z,82.46
2022-08-29T08:26:58.011Z,82.44
2022-08-29T08:29:26.371Z,82.57
2022-08-29T08:31:55.889Z,82.08
2022-08-29T08:34:25.492Z,81.35
2022-08-29T08:36:54.116Z,81.53
2022-08-29T08:39:22.186Z,81.76
2022-08-29T08:41:54.785Z,81.07
2022-08-29T08:45:07.114Z,81.48
2022-08-29T08:47:38.023Z,80.89
2022-08-29T08:50:13.110Z,80.61
2022-08-29T08:52:44.503Z,80.57
2022-08-29T08:55:19.182Z,80.61
2022-08-29T08:57:53.816Z,80.82
2022-08-29T09:00:22.086Z,80.85
2022-08-29T09:03:19.048Z,80.36
2022-08-29T09:06:02.114Z,80.35
2022-08-29T09:08:36.328Z,80.81
2022-08-29T09:11:11.361Z,81.17
2022-08-29T09:13:47.968Z,80.93
2022-08-29T09:16:24.785Z,80.61
2022-08-29T09:18:54.251Z,80.95
2022-08-29T09:21:40.421Z,80.49
2022-08-29T09:24:13.776Z,80.07
2022-08-29T09:26:41.883Z,79.59
2022-08-29T09:29:10.104Z,79.63
2022-08-29T09:31:38.182Z,79.41
2022-08-29T09:34:11.981Z,79.49
2022-08-29T09:36:47.503Z,78.42
2022-08-29T09:39:22.106Z,78.48
2022-08-29T09:41:52.945Z,78.02
2022-08-29T09:44:24.141Z,77.95
2022-08-29T09:47:11.426Z,78.01
2022-08-29T09:49:40.799Z,77.62
2022-08-29T09:52:13.579Z,77.17
2022-08-29T09:54:42.564Z,77.59
2022-08-29T09:57:14.782Z,76.43
2022-08-29T09:59:45.142Z,77.13
2022-08-29T10:02:25.324Z,77.59
2022-08-29T10:04:55.348Z,77.58
2022-08-29T10:07:26.608Z,77.00
2022-08-29T10:10:01.391Z,77.58
2022-08-29T10:12:35.328Z,77.80
2022-08-29T10:15:08.356Z,76.87
2022-08-29T10:17:58.031Z,75.62
2022-08-29T10:20:30.291Z,76.50
2022-08-29T10:23:03.502Z,76.58
2022-08-29T10:25:38.265Z,75.10
2022-08-29T10:28:11.206Z,75.61
2022-08-29T10:30:46.474Z,75.09
2022-08-29T10:33:22.565Z,75.32
2022-08-29T10:35:54.960Z,75.26
2022-08-29T10:38:36.300Z,76.65
2022-08-29T10:41:07.930Z,75.82
2022-08-29T10:43:40.257Z,74.74
2022-08-29T10:46:17.811Z,75.34
2022-08-29T10:48:52.655Z,73.68
2022-08-29T10:51:24.274Z,74.54
2022-08-29T10:53:57.642Z,74.48
2022-08-29T10:56:29.658Z,73.44
2022-08-29T10:59:04.780Z,73.94
2022-08-29T11:01:36.503Z,73.51
2022-08-29T11:04:11.079Z,72.58
2022-08-29T11:06:42.472Z,74.11
2022-08-29T11:09:18.629Z,73.71
2022-08-29T11:11:50.007Z,72.51
2022-08-29T11:14:24.540Z,73.29
2022-08-29T11:16:53.604Z,72.26
2022-08-29T11:19:24.870Z,72.64
2022-08-29T11:21:56.697Z,71.88
2022-08-29T11:24:31.698Z,72.33
2022-08-29T11:27:08.399Z,72.06
2022-08-29T11:29:40.477Z,73.43
2022-08-29T11:32:15.038Z,72.35
2022-08-29T11:34:57.455Z,70.04
2022-08-29T11:37:52.951Z,71.67
2022-08-29T11:43:30.297Z,68.26
2022-08-29T11:46:01.636Z,68.83
2022-08-29T11:48:36.132Z,65.48
2022-08-29T11:51:35.962Z,67.19
2022-08-29T11:54:39.237Z,66.60
2022-08-29T11:57:40.053Z,67.73
2022-08-29T12:00:33.354Z,63.83
2022-08-29T12:03:04.382Z,63.87
2022-08-29T12:05:56.078Z,64.86
2022-08-29T12:08:37.177Z,61.88
2022-08-29T12:11:06.661Z,64.94
2022-08-29T12:14:06.225Z,63.20
2022-08-29T12:16:50.138Z,62.86
2022-08-29T12:19:47.660Z,59.87
2022-08-29T12:23:01.481Z,61.11
2022-08-29T12:26:04.109Z,59.94
2022-08-29T12:28:47.057Z,58.33
2022-08-29T12:31:26.888Z,58.41
2022-08-29T12:34:05.823Z,60.22
2022-08-29T12:36:52.271Z,60.88
2022-08-29T12:39:29.236Z,60.34
2022-08-29T12:42:08.140Z,59.28
2022-08-29T12:44:39.094Z,56.57
2022-08-29T12:47:10.282Z,58.39
2022-08-29T12:49:43.144Z,55.23
2022-08-29T12:52:22.452Z,59.57
2022-08-29T12:54:56.177Z,56.84
2022-08-29T12:57:27.587Z,59.92
2022-08-29T12:59:55.777Z,56.46
2022-08-29T13:02:28.750Z,59.25
2022-08-29T13:04:56.907Z,56.93
2022-08-29T13:07:26.132Z,59.24
2022-08-29T13:09:56.056Z,57.79
2022-08-29T13:12:26.106Z,55.58
2022-08-29T13:14:57.637Z,57.75
2022-08-29T13:17:29.467Z,55.59
2022-08-29T13:20:34.571Z,57.01
2022-08-29T13:23:09.192Z,55.46
2022-08-29T13:25:43.218Z,55.69
2022-08-29T13:28:14.839Z,58.89
2022-08-29T13:30:43.422Z,53.69
2022-08-29T13:33:35.479Z,54.87
2022-08-29T13:36:29.701Z,57.71
2022-08-29T13:39:25.020Z,52.57
2022-08-29T13:42:10.091Z,53.53
2022-08-29T13:44:54.349Z,51.97
2022-08-29T13:47:24.038Z,49.89
2022-08-29T13:49:59.005Z,50.66
2022-08-29T13:52:31.756Z,50.46
2022-08-29T13:55:00.295Z,49.37
2022-08-29T13:57:30.458Z,50.09
2022-08-29T13:59:58.936Z,50.80
2022-08-29T14:02:28.629Z,49.32
2022-08-29T14:04:58.425Z,47.97
2022-08-29T14:07:28.627Z,48.94
2022-08-29T14:09:57.018Z,48.38
2022-08-29T14:12:33.009Z,47.25
2022-08-29T14:15:06.570Z,47.30
2022-08-29T14:17:37.201Z,51.88
2022-08-29T14:20:09.650Z,51.38
2022-08-29T14:22:38.046Z,45.75
2022-08-29T14:25:07.283Z,45.66
2022-08-29T14:27:35.312Z,44.68
2022-08-29T14:30:03.559Z,43.27
2022-08-29T14:32:31.643Z,49.33
2022-08-29T14:34:59.680Z,52.56
2022-08-29T14:37:29.103Z,47.91
2022-08-29T14:39:57.237Z,49.72
2022-08-29T14:42:26.219Z,49.89
2022-08-29T14:44:54.348Z,48.98
2022-08-29T14:47:22.447Z,47.50
2022-08-29T14:49:50.499Z,44.49
2022-08-29T14:52:18.619Z,47.60
2022-08-29T14:54:48.015Z,49.45
2022-08-29T14:57:16.278Z,43.28
2022-08-29T14:59:44.883Z,44.60
2022-08-29T15:02:13.413Z,47.40
2022-08-29T15:04:41.524Z,45.07
2022-08-29T15:07:11.743Z,47.11
2022-08-29T15:09:41.738Z,46.25
2022-08-29T15:12:11.503Z,45.16
2022-08-29T15:14:39.728Z,46.30
2022-08-29T15:17:08.468Z,39.98
2022-08-29T15:20:18.167Z,45.97
2022-08-29T15:22:25.426Z,45.66
2022-08-29T15:24:53.779Z,45.39
2022-08-29T15:27:27.548Z,41.98
2022-08-29T15:29:56.027Z,42.09
2022-08-29T15:32:24.032Z,43.98
2022-08-29T15:34:52.403Z,43.40
2022-08-29T15:37:20.419Z,42.69
2022-08-29T15:39:49.914Z,44.99
2022-08-29T15:42:29.525Z,42.76
2022-08-29T15:44:57.616Z,43.13
2022-08-29T15:47:25.706Z,44.25
2022-08-29T15:49:55.819Z,41.44
2022-08-29T15:52:24.035Z,41.05
2022-08-29T15:54:52.182Z,43.36
2022-08-29T15:57:20.789Z,42.05
2022-08-29T15:59:58.639Z,40.74
2022-08-29T16:02:27.582Z,41.03
2022-08-29T16:04:57.182Z,41.43
2022-08-29T16:07:29.251Z,40.61
2022-08-29T16:10:00.124Z,40.22
2022-08-29T16:12:30.949Z,39.88
2022-08-29T16:15:01.936Z,41.45
2022-08-29T16:17:32.104Z,41.70
2022-08-29T16:20:01.188Z,40.24
2022-08-29T16:22:29.536Z,41.44
2022-08-29T16:24:57.952Z,39.54
2022-08-29T16:27:25.968Z,40.11
2022-08-29T16:29:55.469Z,40.36
2022-08-29T16:32:24.854Z,40.40
2022-08-29T16:34:52.892Z,41.42
2022-08-29T16:37:21.176Z,41.84
2022-08-29T16:39:49.273Z,43.41
2022-08-29T16:42:17.389Z,42.33
2022-08-29T16:44:45.564Z,40.67
2022-08-29T16:47:13.667Z,39.94
2022-08-29T16:49:43.104Z,40.29
2022-08-29T16:52:11.189Z,41.62
2022-08-29T16:54:39.782Z,41.65
2022-08-29T16:57:07.912Z,43.53
2022-08-29T16:59:37.227Z,42.47
2022-08-29T17:02:05.848Z,41.85
2022-08-29T17:04:33.929Z,41.85
2022-08-29T17:07:03.358Z,42.79
2022-08-29T17:09:30.511Z,41.86
2022-08-29T17:11:57.740Z,42.86
2022-08-29T17:14:29.269Z,44.75
2022-08-29T17:16:57.386Z,43.87
2022-08-29T17:19:25.492Z,44.22
2022-08-29T17:21:53.639Z,45.87
2022-08-29T17:24:23.043Z,45.75
2022-08-29T17:26:51.102Z,46.06
2022-08-29T17:29:19.228Z,45.67
2022-08-29T17:31:47.396Z,46.43
2022-08-29T17:34:16.268Z,47.43
2022-08-29T17:36:44.715Z,47.80
2022-08-29T17:39:13.461Z,47.78
2022-08-29T17:41:43.363Z,48.24
2022-08-29T17:44:13.098Z,48.80
2022-08-29T17:46:41.430Z,49.42
2022-08-29T17:49:10.474Z,50.02
2022-08-29T17:51:39.603Z,50.81
2022-08-29T17:54:12.355Z,51.37
2022-08-29T17:56:46.105Z,51.28
2022-08-29T17:59:14.419Z,52.09
2022-08-29T18:01:42.540Z,52.22
2022-08-29T18:04:11.278Z,52.49
2022-08-29T18:06:39.736Z,51.55
2022-08-29T18:09:08.874Z,52.11
2022-08-29T18:11:38.644Z,51.71
2022-08-29T18:14:08.492Z,51.93
2022-08-29T18:16:36.829Z,51.37
2022-08-29T18:19:05.848Z,51.61
2022-08-29T18:21:34.496Z,51.45
2022-08-29T18:24:02.636Z,52.47
2022-08-29T18:26:30.790Z,52.78
2022-08-29T18:28:59.106Z,53.66
2022-08-29T18:31:28.475Z,53.80
2022-08-29T18:34:00.584Z,54.39
2022-08-29T18:36:29.671Z,54.87
2022-08-29T18:38:57.970Z,55.52
2022-08-29T18:41:26.825Z,55.59
2022-08-29T18:43:54.858Z,56.18
2022-08-29T18:46:23.315Z,56.35
2022-08-29T18:48:53.200Z,56.96
2022-08-29T18:51:21.350Z,57.15
2022-08-29T18:53:49.508Z,57.30
2022-08-29T18:56:17.734Z,57.90
2022-08-29T18:58:45.789Z,57.96
2022-08-29T19:01:17.152Z,58.44
2022-08-29T19:03:58.889Z,58.80
2022-08-29T19:06:27.603Z,58.89
2022-08-29T19:08:56.642Z,59.47
2022-08-29T19:11:25.506Z,59.83
2022-08-29T19:13:53.994Z,59.62
2022-08-29T19:16:22.943Z,59.88
2022-08-29T19:18:51.341Z,60.40
2022-08-29T19:21:20.227Z,60.45
2022-08-29T19:23:52.191Z,60.63
2022-08-29T19:26:24.215Z,60.67
2022-08-29T19:28:54.228Z,61.02
2022-08-29T19:31:24.957Z,61.20
2022-08-29T19:33:53.560Z,61.35
2022-08-29T19:36:24.018Z,61.08
2022-08-29T19:38:52.106Z,60.84
2022-08-29T19:41:20.319Z,61.52
2022-08-29T19:43:48.843Z,61.78
2022-08-29T19:46:19.960Z,61.79
2022-08-29T19:48:51.341Z,62.21
2022-08-29T19:51:25.759Z,62.89
2022-08-29T19:53:57.633Z,63.02
2022-08-29T19:56:26.917Z,63.36
2022-08-29T19:58:55.142Z,63.75
2022-08-29T20:01:23.903Z,63.95
2022-08-29T20:03:52.735Z,64.55
2022-08-29T20:06:23.310Z,64.73
2022-08-29T20:08:51.547Z,65.35
2022-08-29T20:11:21.951Z,65.43
2022-08-29T20:13:51.144Z,64.87
2022-08-29T20:16:21.587Z,64.78
2022-08-29T20:18:50.462Z,65.62
2022-08-29T20:21:19.169Z,65.99
2022-08-29T20:23:51.468Z,65.74
2022-08-29T20:26:23.955Z,65.98
2022-08-29T20:28:54.167Z,65.87
2022-08-29T20:31:23.318Z,66.19
2022-08-29T20:33:51.790Z,66.04
2022-08-29T20:36:38.992Z,66.58
2022-08-29T20:39:10.251Z,66.63
2022-08-29T20:41:38.598Z,66.05
2022-08-29T20:44:09.909Z,66.59
2022-08-29T20:46:40.660Z,67.44
2022-08-29T20:49:09.128Z,67.80
2022-08-29T20:51:37.589Z,67.99
2022-08-29T20:54:06.422Z,68.21
2022-08-29T20:56:35.843Z,68.43
2022-08-29T20:59:04.030Z,69.00
2022-08-29T21:01:32.185Z,69.22
2022-08-29T21:04:20.950Z,69.46
2022-08-29T21:06:49.472Z,69.37
2022-08-29T21:09:17.520Z,69.44
2022-08-29T21:11:46.927Z,69.92
2022-08-29T21:14:15.102Z,69.79
2022-08-29T21:16:43.126Z,69.69
2022-08-29T21:19:11.363Z,70.02
2022-08-29T21:21:41.087Z,70.43
2022-08-29T21:24:11.459Z,70.64
2022-08-29T21:26:40.037Z,70.44
2022-08-29T21:29:09.509Z,70.99
2022-08-29T21:31:37.799Z,70.95
2022-08-29T21:34:07.252Z,70.63
2022-08-29T21:36:36.772Z,70.48
2022-08-29T21:39:06.304Z,70.88
2022-08-29T21:41:35.368Z,70.58
2022-08-29T21:44:03.957Z,70.57
2022-08-29T21:46:35.255Z,70.06
2022-08-29T21:49:06.237Z,69.78
2022-08-29T21:51:35.043Z,69.54
2022-08-29T21:54:03.738Z,70.15
2022-08-29T21:56:33.750Z,70.60
2022-08-29T21:59:02.602Z,71.03
2022-08-29T22:01:38.724Z,70.96
2022-08-29T22:04:10.271Z,70.77
2022-08-29T22:06:39.698Z,71.14
2022-08-29T22:09:09.875Z,71.70
2022-08-29T22:11:38.410Z,71.56
2022-08-29T22:14:07.406Z,71.40
2022-08-29T22:16:37.029Z,71.63
2022-08-29T22:19:08.165Z,71.68
2022-08-29T22:21:38.164Z,71.30
2022-08-29T22:24:07.781Z,71.23
2022-08-29T22:26:37.011Z,71.29
2022-08-29T22:29:05.377Z,71.81
2022-08-29T22:31:34.006Z,72.14
2022-08-29T22:34:05.288Z,72.27
2022-08-29T22:36:34.375Z,72.53
2022-08-29T22:39:02.474Z,72.62
2022-08-29T22:41:31.223Z,72.79
2022-08-29T22:46:49.771Z,72.84
2022-08-29T22:49:19.213Z,72.40
2022-08-29T22:51:48.242Z,72.33
2022-08-29T22:54:33.940Z,72.35
2022-08-29T22:57:02.653Z,72.96
2022-08-29T22:59:30.731Z,73.17
2022-08-29T23:01:59.013Z,73.17
2022-08-29T23:04:28.553Z,73.21
2022-08-29T23:06:56.618Z,73.92
2022-08-29T23:09:24.658Z,73.87
2022-08-29T23:11:52.700Z,73.59
2022-08-29T23:14:21.557Z,73.14
2022-08-29T23:16:50.077Z,72.97
2022-08-29T23:19:18.311Z,73.43
2022-08-29T23:21:47.708Z,73.59
2022-08-29T23:24:16.628Z,73.83
2022-08-29T23:26:44.692Z,73.75
2022-08-29T23:29:12.760Z,73.34
2022-08-29T23:31:40.763Z,73.15
2022-08-29T23:34:08.877Z,73.44
2022-08-29T23:36:37.678Z,73.51
2022-08-29T23:39:07.555Z,73.93
2022-08-29T23:41:36.361Z,74.44
2022-08-29T23:44:05.130Z,74.34
2022-08-29T23:46:33.299Z,74.63
2022-08-29T23:49:01.377Z,74.89
2022-08-29T23:51:29.675Z,74.96
2022-08-29T23:53:58.262Z,74.53
2022-08-29T23:56:27.751Z,74.72
2022-08-29T23:58:56.354Z,74.55
